createdAt,value
2019-03-24T00:00:11.233Z,102233.16
2019-03-24T00:02:39.449Z,102236.92
2019-03-24T00:05:05.846Z,102241.17
2019-03-24T00:07:32.070Z,102239.68
2019-03-24T00:09:58.179Z,102236.56
2019-03-24T00:12:24.285Z,102238.79
2019-03-24T00:14:50.527Z,102243.52
2019-03-24T00:17:16.781Z,102239.61
2019-03-24T00:19:43.098Z,102239.20
2019-03-24T00:22:09.193Z,102238.80
2019-03-24T00:24:35.334Z,102234.51
2019-03-24T00:27:01.690Z,102232.28
2019-03-24T00:29:27.899Z,102227.52
2019-03-24T00:31:54.225Z,102225.97
2019-03-24T00:34:20.734Z,102223.25
2019-03-24T00:36:48.897Z,102225.84
2019-03-24T00:39:15.190Z,102228.70
2019-03-24T00:41:41.298Z,102226.41
2019-03-24T00:44:07.486Z,102228.19
2019-03-24T00:46:34.811Z,102224.98
2019-03-24T00:49:01.033Z,102219.75
2019-03-24T00:51:27.262Z,102215.58
2019-03-24T00:53:53.753Z,102221.23
2019-03-24T00:56:19.853Z,102216.06
2019-03-24T00:58:45.916Z,102217.77
2019-03-24T01:01:12.040Z,102222.67
2019-03-24T01:03:38.338Z,102214.41
2019-03-24T01:06:04.739Z,102217.42
2019-03-24T01:08:30.934Z,102212.78
2019-03-24T01:10:57.033Z,102199.20
2019-03-24T01:13:23.257Z,102201.29
2019-03-24T01:15:49.459Z,102200.91
2019-03-24T01:18:15.658Z,102197.50
2019-03-24T01:20:41.989Z,102197.41
2019-03-24T01:23:08.423Z,102194.91
2019-03-24T01:25:34.589Z,102202.20
2019-03-24T01:28:00.885Z,102204.42
2019-03-24T01:30:27.198Z,102195.03
2019-03-24T01:32:53.457Z,102192.66
2019-03-24T01:35:19.751Z,102198.69
2019-03-24T01:37:46.083Z,102199.70
2019-03-24T01:40:12.364Z,102195.45
2019-03-24T01:42:38.685Z,102189.67
2019-03-24T01:45:08.649Z,102184.70
2019-03-24T01:47:35.011Z,102193.22
2019-03-24T01:50:01.534Z,102193.61
2019-03-24T01:52:27.737Z,102192.95
2019-03-24T01:54:55.287Z,102193.44
2019-03-24T01:57:21.491Z,102190.36
2019-03-24T01:59:47.628Z,102190.16
2019-03-24T02:02:13.698Z,102190.16
2019-03-24T02:04:39.784Z,102185.66
2019-03-24T02:07:05.998Z,102188.51
2019-03-24T02:09:32.151Z,102185.61
2019-03-24T02:11:58.343Z,102176.81
2019-03-24T02:14:24.533Z,102174.78
2019-03-24T02:16:50.725Z,102181.44
2019-03-24T02:19:16.793Z,102184.51
2019-03-24T02:21:44.073Z,102181.99
2019-03-24T02:24:10.267Z,102185.00
2019-03-24T02:26:36.590Z,102182.80
2019-03-24T02:29:02.893Z,102177.72
2019-03-24T02:31:29.303Z,102170.90
2019-03-24T02:33:55.399Z,102169.83
2019-03-24T02:36:21.479Z,102174.62
2019-03-24T02:38:47.571Z,102169.67
2019-03-24T02:41:13.654Z,102175.30
2019-03-24T02:43:39.817Z,102168.35
2019-03-24T02:46:05.893Z,102176.37
2019-03-24T02:48:32.002Z,102165.58
2019-03-24T02:50:58.090Z,102162.51
2019-03-24T02:53:24.272Z,102161.41
2019-03-24T02:55:50.451Z,102156.39
2019-03-24T02:58:16.626Z,102157.34
2019-03-24T03:00:42.808Z,102155.32
2019-03-24T03:03:09.212Z,102156.15
2019-03-24T03:05:35.406Z,102155.44
2019-03-24T03:08:02.814Z,102159.37
2019-03-24T03:10:28.904Z,102157.62
2019-03-24T03:12:54.986Z,102153.13
2019-03-24T03:15:21.135Z,102156.28
2019-03-24T03:17:47.273Z,102155.79
2019-03-24T03:20:14.250Z,102158.79
2019-03-24T03:22:40.464Z,102149.83
2019-03-24T03:25:07.259Z,102145.47
2019-03-24T03:27:33.445Z,102144.91
2019-03-24T03:29:59.567Z,102135.69
2019-03-24T03:32:25.776Z,102131.48
2019-03-24T03:34:51.843Z,102131.44
2019-03-24T03:37:19.126Z,102135.45
2019-03-24T03:39:45.300Z,102133.50
2019-03-24T03:42:11.492Z,102128.71
2019-03-24T03:44:37.602Z,102121.74
2019-03-24T03:47:04.795Z,102120.41
2019-03-24T03:49:31.995Z,102122.59
2019-03-24T03:51:58.099Z,102127.48
2019-03-24T03:54:24.179Z,102122.14
2019-03-24T03:56:50.280Z,102117.47
2019-03-24T03:59:16.466Z,102124.50
2019-03-24T04:01:42.560Z,102120.22
2019-03-24T04:04:08.633Z,102120.26
2019-03-24T04:06:34.731Z,102120.83
2019-03-24T04:09:00.869Z,102115.67
2019-03-24T04:11:26.953Z,102120.90
2019-03-24T04:13:53.021Z,102120.10
2019-03-24T04:16:19.098Z,102121.98
2019-03-24T04:18:45.172Z,102123.08
2019-03-24T04:21:11.271Z,102115.91
2019-03-24T04:23:37.356Z,102117.69
2019-03-24T04:26:03.462Z,102111.16
2019-03-24T04:28:29.667Z,102103.80
2019-03-24T04:30:55.749Z,102101.31
2019-03-24T04:33:21.949Z,102095.80
2019-03-24T04:35:48.215Z,102097.59
2019-03-24T04:38:14.306Z,102094.31
2019-03-24T04:40:40.461Z,102093.95
2019-03-24T04:43:06.563Z,102097.94
2019-03-24T04:45:32.648Z,102093.69
2019-03-24T04:47:59.045Z,102102.70
2019-03-24T04:50:25.195Z,102098.33
2019-03-24T04:52:51.280Z,102100.17
2019-03-24T04:55:17.549Z,102102.11
2019-03-24T04:57:43.644Z,102103.02
2019-03-24T05:00:10.580Z,102110.98
2019-03-24T05:02:36.671Z,102113.14
2019-03-24T05:05:05.589Z,102110.44
2019-03-24T05:07:31.762Z,102108.37
2019-03-24T05:09:58.234Z,102109.87
2019-03-24T05:12:24.345Z,102111.63
2019-03-24T05:14:50.405Z,102109.81
2019-03-24T05:17:26.487Z,102117.30
2019-03-24T05:19:44.470Z,102112.39
2019-03-24T05:22:10.586Z,102102.59
2019-03-24T05:24:36.678Z,102104.61
2019-03-24T05:27:02.871Z,102099.72
2019-03-24T05:29:28.943Z,102092.50
2019-03-24T05:31:55.025Z,102098.37
2019-03-24T05:34:21.222Z,102097.09
2019-03-24T05:36:47.315Z,102096.53
2019-03-24T05:39:13.414Z,102099.34
2019-03-24T05:41:39.524Z,102098.02
2019-03-24T05:44:05.810Z,102091.97
2019-03-24T05:46:31.907Z,102094.34
2019-03-24T05:48:58.309Z,102088.77
2019-03-24T05:51:24.427Z,102086.98
2019-03-24T05:53:50.548Z,102084.19
2019-03-24T05:56:16.728Z,102088.41
2019-03-24T05:58:42.964Z,102087.78
2019-03-24T06:01:09.065Z,102085.04
2019-03-24T06:03:35.267Z,102086.69
2019-03-24T06:06:01.366Z,102084.08
2019-03-24T06:08:27.459Z,102086.16
2019-03-24T06:10:53.655Z,102084.61
2019-03-24T06:13:19.776Z,102086.88
2019-03-24T06:15:45.981Z,102083.88
2019-03-24T06:18:12.089Z,102078.55
2019-03-24T06:20:38.179Z,102088.86
2019-03-24T06:23:04.363Z,102080.68
2019-03-24T06:25:30.463Z,102078.36
2019-03-24T06:27:56.651Z,102077.80
2019-03-24T06:30:22.747Z,102068.63
2019-03-24T06:32:48.838Z,102062.88
2019-03-24T06:35:15.021Z,102057.74
2019-03-24T06:37:41.114Z,102060.30
2019-03-24T06:40:07.496Z,102069.52
2019-03-24T06:42:33.675Z,102058.71
2019-03-24T06:44:59.836Z,102063.95
2019-03-24T06:47:25.941Z,102055.80
2019-03-24T06:49:52.052Z,102065.57
2019-03-24T06:52:18.293Z,102064.75
2019-03-24T06:54:44.411Z,102061.03
2019-03-24T06:57:10.598Z,102058.98
2019-03-24T06:59:36.710Z,102062.29
2019-03-24T07:02:02.887Z,102057.26
2019-03-24T07:04:28.979Z,102050.70
2019-03-24T07:06:55.152Z,102046.14
2019-03-24T07:09:21.450Z,102043.39
2019-03-24T07:11:47.547Z,102041.92
2019-03-24T07:14:14.637Z,102034.34
2019-03-24T07:16:40.952Z,102030.52
2019-03-24T07:19:07.187Z,102023.77
2019-03-24T07:21:33.291Z,102026.20
2019-03-24T07:24:00.573Z,102023.28
2019-03-24T07:26:26.959Z,102025.31
2019-03-24T07:28:53.065Z,102017.41
2019-03-24T07:31:19.286Z,102018.44
2019-03-24T07:33:45.572Z,102019.08
2019-03-24T07:36:11.665Z,102021.91
2019-03-24T07:38:37.757Z,102023.03
2019-03-24T07:41:04.084Z,102027.38
2019-03-24T07:43:30.175Z,102026.03
2019-03-24T07:45:56.279Z,102023.95
2019-03-24T07:48:29.314Z,102029.06
2019-03-24T07:50:55.531Z,102023.25
2019-03-24T07:53:21.737Z,102026.80
2019-03-24T07:55:47.948Z,102019.70
2019-03-24T07:58:14.013Z,102020.28
2019-03-24T08:00:40.221Z,102025.66
2019-03-24T08:03:06.403Z,102019.22
2019-03-24T08:05:32.606Z,102026.23
2019-03-24T08:07:58.703Z,102019.58
2019-03-24T08:10:25.982Z,102019.87
2019-03-24T08:12:53.371Z,102020.80
2019-03-24T08:15:19.584Z,102029.81
2019-03-24T08:17:46.134Z,102028.87
2019-03-24T08:20:12.485Z,102030.47
2019-03-24T08:22:38.646Z,102029.48
2019-03-24T08:25:05.277Z,102029.17
2019-03-24T08:27:31.327Z,102028.66
2019-03-24T08:29:57.440Z,102025.94
2019-03-24T08:32:23.535Z,102031.08
2019-03-24T08:34:50.876Z,102029.38
2019-03-24T08:37:17.156Z,102029.63
2019-03-24T08:39:43.380Z,102031.05
2019-03-24T08:42:09.505Z,102025.55
2019-03-24T08:44:35.604Z,102023.44
2019-03-24T08:47:01.798Z,102025.48
2019-03-24T08:49:27.888Z,102014.88
2019-03-24T08:51:54.150Z,102002.86
2019-03-24T08:54:20.358Z,101995.83
2019-03-24T08:56:46.456Z,101995.20
2019-03-24T08:59:12.540Z,101989.33
2019-03-24T09:01:38.625Z,101988.05
2019-03-24T09:04:04.733Z,101985.47
2019-03-24T09:06:30.830Z,101983.53
2019-03-24T09:08:58.271Z,101975.39
2019-03-24T09:11:31.136Z,101966.94
2019-03-24T09:13:52.495Z,101961.69
2019-03-24T09:16:18.630Z,101963.08
2019-03-24T09:18:52.551Z,101964.05
2019-03-24T09:21:12.914Z,101948.28
2019-03-24T09:23:39.135Z,101950.63
2019-03-24T09:26:05.323Z,101951.88
2019-03-24T09:28:31.432Z,101952.69
2019-03-24T09:30:57.526Z,101952.47
2019-03-24T09:33:23.751Z,101941.79
2019-03-24T09:35:49.956Z,101942.77
2019-03-24T09:38:16.036Z,101941.22
2019-03-24T09:40:42.230Z,101938.61
2019-03-24T09:43:08.403Z,101936.71
2019-03-24T09:45:34.706Z,101933.34
2019-03-24T09:48:01.102Z,101926.44
2019-03-24T09:50:27.434Z,101920.27
2019-03-24T09:52:53.576Z,101917.83
2019-03-24T09:55:19.697Z,101926.84
2019-03-24T09:57:45.931Z,101927.75
2019-03-24T10:00:12.145Z,101927.75
2019-03-24T10:02:38.369Z,101925.66
2019-03-24T10:05:04.975Z,101930.04
2019-03-24T10:07:31.107Z,101922.06
2019-03-24T10:09:57.261Z,101921.56
2019-03-24T10:12:23.382Z,101921.56
2019-03-24T10:14:49.568Z,101916.37
2019-03-24T10:17:15.888Z,101918.86
2019-03-24T10:19:42.011Z,101912.58
2019-03-24T10:22:09.325Z,101912.58
2019-03-24T10:24:35.451Z,101922.89
2019-03-24T10:27:01.719Z,101918.61
2019-03-24T10:29:27.883Z,101915.25
2019-03-24T10:31:53.984Z,101915.25
2019-03-24T10:34:20.140Z,101916.72
2019-03-24T10:36:46.283Z,101929.55
2019-03-24T10:39:12.516Z,101921.41
2019-03-24T10:41:38.657Z,101923.39
2019-03-24T10:44:04.896Z,101926.58
2019-03-24T10:46:31.107Z,101918.16
2019-03-24T10:48:57.302Z,101922.28
2019-03-24T10:51:23.592Z,101909.90
2019-03-24T10:53:49.944Z,101902.23
2019-03-24T10:56:16.087Z,101895.83
2019-03-24T10:58:42.413Z,101893.41
2019-03-24T11:01:08.623Z,101884.09
2019-03-24T11:03:34.723Z,101885.12
2019-03-24T11:06:00.904Z,101877.44
2019-03-24T11:08:27.069Z,101876.07
2019-03-24T11:10:53.300Z,101874.98
2019-03-24T11:13:19.451Z,101874.98
2019-03-24T11:15:45.684Z,101870.30
2019-03-24T11:18:11.893Z,101865.02
2019-03-24T11:20:38.106Z,101862.21
2019-03-24T11:23:05.459Z,101855.13
2019-03-24T11:25:31.788Z,101859.00
2019-03-24T11:27:58.141Z,101858.57
2019-03-24T11:30:24.497Z,101849.47
2019-03-24T11:32:50.684Z,101851.66
2019-03-24T11:35:16.814Z,101844.81
2019-03-24T11:37:43.130Z,101844.30
2019-03-24T11:40:09.816Z,101845.35
2019-03-24T11:42:36.105Z,101832.72
2019-03-24T11:45:04.592Z,101844.44
2019-03-24T11:47:30.925Z,101842.86
2019-03-24T11:49:57.066Z,101832.58
2019-03-24T11:52:23.275Z,101832.58
2019-03-24T11:54:49.526Z,101833.80
2019-03-24T11:57:15.751Z,101838.48
2019-03-24T11:59:43.029Z,101837.02
2019-03-24T12:02:09.439Z,101834.87
2019-03-24T12:04:35.678Z,101822.59
2019-03-24T12:07:01.935Z,101820.00
2019-03-24T12:09:29.255Z,101816.96
2019-03-24T12:11:55.594Z,101804.55
2019-03-24T12:14:21.805Z,101806.91
2019-03-24T12:16:48.129Z,101799.27
2019-03-24T12:19:14.471Z,101805.98
2019-03-24T12:21:40.749Z,101806.31
2019-03-24T12:24:06.883Z,101803.52
2019-03-24T12:26:33.323Z,101797.06
2019-03-24T12:28:59.493Z,101788.84
2019-03-24T12:31:25.761Z,101789.59
2019-03-24T12:33:51.893Z,101788.11
2019-03-24T12:36:18.040Z,101775.00
2019-03-24T12:38:44.170Z,101780.28
2019-03-24T12:41:10.509Z,101770.86
2019-03-24T12:43:36.792Z,101768.22
2019-03-24T12:46:03.116Z,101767.48
2019-03-24T12:48:29.377Z,101772.94
2019-03-24T12:50:55.694Z,101767.18
2019-03-24T12:53:22.034Z,101775.44
2019-03-24T12:55:48.171Z,101768.20
2019-03-24T12:58:14.514Z,101766.39
2019-03-24T13:00:40.958Z,101769.05
2019-03-24T13:03:07.649Z,101763.98
2019-03-24T13:05:34.053Z,101764.16
2019-03-24T13:08:10.223Z,101769.27
2019-03-24T13:10:36.351Z,101762.30
2019-03-24T13:13:02.752Z,101758.48
2019-03-24T13:15:30.093Z,101758.74
2019-03-24T13:17:56.370Z,101758.56
2019-03-24T13:20:36.611Z,101745.87
2019-03-24T13:22:50.596Z,101745.63
2019-03-24T13:25:16.813Z,101743.41
2019-03-24T13:27:43.029Z,101743.09
2019-03-24T13:30:09.807Z,101743.67
2019-03-24T13:32:36.173Z,101741.20
2019-03-24T13:35:03.230Z,101735.95
2019-03-24T13:37:29.570Z,101736.65
2019-03-24T13:39:55.684Z,101745.54
2019-03-24T13:42:21.946Z,101742.88
2019-03-24T13:44:48.195Z,101733.71
2019-03-24T13:47:14.395Z,101737.20
2019-03-24T13:49:40.673Z,101739.19
2019-03-24T13:52:07.333Z,101733.45
2019-03-24T13:54:33.767Z,101725.63
2019-03-24T13:56:59.998Z,101720.55
2019-03-24T13:59:26.121Z,101712.27
2019-03-24T14:01:52.229Z,101711.77
2019-03-24T14:04:18.337Z,101715.77
2019-03-24T14:06:44.597Z,101705.09
2019-03-24T14:09:11.290Z,101699.21
2019-03-24T14:11:37.616Z,101705.34
2019-03-24T14:14:03.895Z,101706.98
2019-03-24T14:16:30.048Z,101708.98
2019-03-24T14:18:56.407Z,101697.28
2019-03-24T14:21:22.628Z,101693.63
2019-03-24T14:23:48.770Z,101694.87
2019-03-24T14:26:15.113Z,101697.39
2019-03-24T14:28:41.223Z,101695.16
2019-03-24T14:31:07.335Z,101696.52
2019-03-24T14:33:34.050Z,101691.03
2019-03-24T14:36:00.261Z,101689.14
2019-03-24T14:38:27.574Z,101686.92
2019-03-24T14:40:53.897Z,101688.52
2019-03-24T14:43:20.190Z,101688.55
2019-03-24T14:45:46.543Z,101688.50
2019-03-24T14:48:12.666Z,101686.91
2019-03-24T14:50:38.908Z,101681.97
2019-03-24T14:53:05.303Z,101673.70
2019-03-24T14:55:31.535Z,101675.53
2019-03-24T14:57:57.887Z,101662.43
2019-03-24T15:00:27.829Z,101665.58
2019-03-24T15:02:53.929Z,101667.30
2019-03-24T15:05:20.165Z,101661.23
2019-03-24T15:07:46.502Z,101660.31
2019-03-24T15:10:12.772Z,101659.88
2019-03-24T15:12:38.938Z,101656.09
2019-03-24T15:15:07.358Z,101660.41
2019-03-24T15:17:33.808Z,101657.67
2019-03-24T15:19:59.933Z,101661.36
2019-03-24T15:22:26.136Z,101662.16
2019-03-24T15:24:52.340Z,101656.34
2019-03-24T15:27:18.575Z,101655.94
2019-03-24T15:29:44.827Z,101652.41
2019-03-24T15:32:10.970Z,101642.66
2019-03-24T15:34:37.187Z,101640.25
2019-03-24T15:37:03.308Z,101639.25
2019-03-24T15:39:29.548Z,101644.41
2019-03-24T15:41:57.644Z,101638.45
2019-03-24T15:44:23.858Z,101636.78
2019-03-24T15:46:50.096Z,101634.81
2019-03-24T15:49:16.408Z,101637.17
2019-03-24T15:51:42.751Z,101634.02
2019-03-24T15:54:09.003Z,101629.05
2019-03-24T15:56:35.210Z,101633.97
2019-03-24T15:59:01.323Z,101636.23
2019-03-24T16:01:27.472Z,101632.71
2019-03-24T16:03:53.547Z,101632.71
2019-03-24T16:06:19.767Z,101636.59
2019-03-24T16:08:45.996Z,101635.84
2019-03-24T16:11:12.338Z,101628.57
2019-03-24T16:13:38.456Z,101634.34
2019-03-24T16:16:04.826Z,101631.41
2019-03-24T16:18:32.072Z,101624.34
2019-03-24T16:20:58.531Z,101614.62
2019-03-24T16:23:24.860Z,101617.20
2019-03-24T16:25:51.210Z,101621.60
2019-03-24T16:28:17.548Z,101621.12
2019-03-24T16:30:43.781Z,101621.12
2019-03-24T16:33:10.114Z,101619.39
2019-03-24T16:35:36.451Z,101614.22
2019-03-24T16:38:02.762Z,101614.22
2019-03-24T16:40:29.132Z,101616.09
2019-03-24T16:42:55.362Z,101616.09
2019-03-24T16:45:21.758Z,101608.62
2019-03-24T16:47:48.074Z,101616.98
2019-03-24T16:50:15.386Z,101615.11
2019-03-24T16:52:41.597Z,101622.27
2019-03-24T16:55:08.259Z,101616.67
2019-03-24T16:57:34.558Z,101610.63
2019-03-24T17:00:00.782Z,101611.78
2019-03-24T17:02:26.995Z,101603.81
2019-03-24T17:04:53.233Z,101602.87
2019-03-24T17:07:19.457Z,101591.67
2019-03-24T17:09:45.555Z,101598.92
2019-03-24T17:12:11.741Z,101596.07
2019-03-24T17:14:37.970Z,101592.30
2019-03-24T17:17:04.286Z,101598.88
2019-03-24T17:19:30.382Z,101594.27
2019-03-24T17:21:56.558Z,101592.75
2019-03-24T17:24:22.658Z,101599.21
2019-03-24T17:26:48.758Z,101599.03
2019-03-24T17:29:15.062Z,101603.64
2019-03-24T17:31:41.292Z,101598.20
2019-03-24T17:34:07.513Z,101600.46
2019-03-24T17:36:33.600Z,101595.67
2019-03-24T17:38:59.820Z,101597.04
2019-03-24T17:41:26.031Z,101596.84
2019-03-24T17:44:02.660Z,101605.02
2019-03-24T17:46:20.383Z,101603.28
2019-03-24T17:48:46.468Z,101608.83
2019-03-24T17:51:12.718Z,101601.56
2019-03-24T17:53:38.807Z,101597.17
2019-03-24T17:56:05.178Z,101596.37
2019-03-24T17:58:31.422Z,101595.06
2019-03-24T18:00:57.557Z,101598.95
2019-03-24T18:03:23.873Z,101597.05
2019-03-24T18:05:50.147Z,101595.33
2019-03-24T18:08:16.356Z,101594.33
2019-03-24T18:10:42.566Z,101590.81
2019-03-24T18:13:08.876Z,101594.72
2019-03-24T18:15:35.183Z,101597.35
2019-03-24T18:18:01.496Z,101595.80
2019-03-24T18:20:30.502Z,101596.42
2019-03-24T18:22:57.068Z,101590.31
2019-03-24T18:25:23.387Z,101596.34
2019-03-24T18:27:49.634Z,101591.81
2019-03-24T18:30:16.379Z,101595.74
2019-03-24T18:32:42.664Z,101592.59
2019-03-24T18:35:09.382Z,101590.97
2019-03-24T18:37:35.784Z,101592.31
2019-03-24T18:40:06.454Z,101598.16
2019-03-24T18:42:32.644Z,101594.68
2019-03-24T18:44:58.998Z,101594.31
2019-03-24T18:47:25.251Z,101589.75
2019-03-24T18:49:51.571Z,101596.68
2019-03-24T18:52:22.576Z,101589.09
2019-03-24T18:54:45.971Z,101595.70
2019-03-24T18:57:12.110Z,101596.88
2019-03-24T18:59:38.369Z,101588.78
2019-03-24T19:02:04.689Z,101592.02
2019-03-24T19:04:31.026Z,101598.56
2019-03-24T19:06:57.370Z,101595.11
2019-03-24T19:09:23.569Z,101593.48
2019-03-24T19:11:51.696Z,101597.87
2019-03-24T19:14:18.092Z,101594.98
2019-03-24T19:16:44.288Z,101599.62
2019-03-24T19:19:10.630Z,101587.28
2019-03-24T19:21:37.026Z,101594.98
2019-03-24T19:24:03.350Z,101585.91
2019-03-24T19:26:29.555Z,101585.91
2019-03-24T19:28:56.028Z,101586.16
2019-03-24T19:31:23.570Z,101594.19
2019-03-24T19:33:50.153Z,101599.94
2019-03-24T19:36:16.238Z,101595.65
2019-03-24T19:38:44.646Z,101598.78
2019-03-24T19:41:11.045Z,101591.09
2019-03-24T19:43:39.751Z,101594.36
2019-03-24T19:46:05.373Z,101588.35
2019-03-24T19:48:31.580Z,101590.59
2019-03-24T19:50:57.836Z,101593.02
2019-03-24T19:53:23.949Z,101586.55
2019-03-24T19:55:50.262Z,101596.44
2019-03-24T19:58:16.820Z,101590.23
2019-03-24T20:00:42.949Z,101589.06
2019-03-24T20:03:09.399Z,101591.16
2019-03-24T20:05:35.549Z,101593.49
2019-03-24T20:08:01.954Z,101587.13
2019-03-24T20:10:29.786Z,101587.07
2019-03-24T20:12:56.113Z,101581.95
2019-03-24T20:15:22.227Z,101590.50
2019-03-24T20:17:48.370Z,101584.14
2019-03-24T20:20:14.671Z,101585.83
2019-03-24T20:22:40.970Z,101571.25
2019-03-24T20:25:07.545Z,101571.59
2019-03-24T20:27:33.841Z,101564.98
2019-03-24T20:30:00.221Z,101566.27
2019-03-24T20:32:26.838Z,101561.89
2019-03-24T20:34:54.156Z,101565.47
2019-03-24T20:37:20.556Z,101559.41
2019-03-24T20:39:46.756Z,101561.42
2019-03-24T20:42:12.972Z,101568.73
2019-03-24T20:44:39.054Z,101561.68
2019-03-24T20:47:05.463Z,101558.77
2019-03-24T20:49:31.655Z,101561.25
2019-03-24T20:51:58.008Z,101547.93
2019-03-24T20:54:24.134Z,101550.31
2019-03-24T20:56:50.425Z,101546.42
2019-03-24T20:59:17.802Z,101549.89
2019-03-24T21:01:44.111Z,101536.42
2019-03-24T21:04:10.452Z,101536.03
2019-03-24T21:06:36.764Z,101540.98
2019-03-24T21:09:05.993Z,101543.81
2019-03-24T21:11:32.098Z,101537.14
2019-03-24T21:13:58.381Z,101533.55
2019-03-24T21:16:25.575Z,101531.64
2019-03-24T21:18:51.774Z,101523.91
2019-03-24T21:21:18.085Z,101524.09
2019-03-24T21:23:44.659Z,101523.48
2019-03-24T21:26:11.289Z,101526.31
2019-03-24T21:28:37.658Z,101516.55
2019-03-24T21:31:04.303Z,101517.27
2019-03-24T21:33:30.627Z,101518.39
2019-03-24T21:35:56.751Z,101529.59
2019-03-24T21:38:22.971Z,101511.63
2019-03-24T21:40:49.170Z,101508.08
2019-03-24T21:43:15.256Z,101507.52
2019-03-24T21:45:41.540Z,101501.20
2019-03-24T21:48:07.849Z,101498.45
2019-03-24T21:50:34.198Z,101495.73
2019-03-24T21:53:00.511Z,101503.19
2019-03-24T21:55:27.843Z,101500.12
2019-03-24T21:57:57.711Z,101504.10
2019-03-24T22:00:30.998Z,101496.09
2019-03-24T22:02:57.116Z,101500.45
2019-03-24T22:05:23.534Z,101496.05
2019-03-24T22:07:49.718Z,101490.55
2019-03-24T22:10:15.841Z,101485.21
2019-03-24T22:12:42.032Z,101483.30
2019-03-24T22:15:08.435Z,101482.47
2019-03-24T22:17:34.530Z,101482.75
2019-03-24T22:20:00.733Z,101477.59
2019-03-24T22:22:26.987Z,101472.57
2019-03-24T22:24:53.227Z,101472.30
2019-03-24T22:27:19.517Z,101464.90
2019-03-24T22:29:45.776Z,101466.77
2019-03-24T22:32:11.973Z,101471.55
2019-03-24T22:34:38.173Z,101471.55
2019-03-24T22:37:15.456Z,101460.75
2019-03-24T22:39:35.447Z,101457.30
2019-03-24T22:42:01.583Z,101461.22
2019-03-24T22:44:29.807Z,101455.62
2019-03-24T22:46:55.999Z,101455.94
2019-03-24T22:49:22.323Z,101451.74
2019-03-24T22:51:48.419Z,101448.16
2019-03-24T22:54:14.632Z,101441.83
2019-03-24T22:56:40.846Z,101427.03
2019-03-24T22:59:07.008Z,101432.09
2019-03-24T23:01:33.650Z,101429.32
2019-03-24T23:04:00.333Z,101429.08
2019-03-24T23:06:26.543Z,101418.50
2019-03-24T23:08:52.631Z,101410.77
2019-03-24T23:11:18.798Z,101409.39
2019-03-24T23:13:45.009Z,101405.74
2019-03-24T23:16:11.115Z,101407.13
2019-03-24T23:18:37.345Z,101402.59
2019-03-24T23:21:03.656Z,101391.58
2019-03-24T23:23:29.797Z,101395.64
2019-03-24T23:25:56.026Z,101388.42
2019-03-24T23:28:22.189Z,101387.53
2019-03-24T23:30:48.387Z,101377.31
2019-03-24T23:33:14.727Z,101374.55
2019-03-24T23:35:41.922Z,101372.55
2019-03-24T23:38:07.988Z,101360.47
2019-03-24T23:40:34.313Z,101353.11
2019-03-24T23:43:00.726Z,101345.78
2019-03-24T23:45:26.979Z,101338.56
2019-03-24T23:47:53.479Z,101336.28
2019-03-24T23:50:19.635Z,101334.32
2019-03-24T23:52:45.792Z,101333.14
2019-03-24T23:55:12.031Z,101327.36
2019-03-24T23:57:38.133Z,101330.05
